Time;durP1;ratioP1;P1;durP2;ratioP2;P2;SDS_P1;SDS_P2;PMS_P1;PMS_P2;Temp;Humidity;BMP_temperature;BMP_pressure;BME280_temperature;BME280_humidity;BME280_pressure;Samples;Min_cycle;Max_cycle;Signal;HPM_P1;HPM_P2
2020/12/16 00:00:13;;;;;;;9.03;8.33;;;11.10;57.10;;;;;;5054165;28;20176;-67
2020/12/16 00:02:39;;;;;;;9.60;8.80;;;11.00;57.70;;;;;;5054090;28;20191;-67
2020/12/16 00:05:09;;;;;;;12.03;7.40;;;10.90;57.70;;;;;;5054025;28;20176;-68
2020/12/16 00:07:35;;;;;;;14.73;8.83;;;11.00;58.00;;;;;;5053847;28;20811;-67
2020/12/16 00:10:02;;;;;;;10.07;8.77;;;11.20;57.90;;;;;;5054056;28;20417;-67
2020/12/16 00:12:29;;;;;;;9.40;8.60;;;11.40;57.20;;;;;;5053938;28;20426;-68
2020/12/16 00:14:55;;;;;;;10.03;9.20;;;11.40;56.80;;;;;;5053905;28;20448;-67
2020/12/16 00:17:22;;;;;;;9.80;9.00;;;11.50;56.30;;;;;;5052353;28;20508;-67
2020/12/16 00:19:47;;;;;;;8.80;8.10;;;11.50;56.10;;;;;;5053857;28;20441;-68
2020/12/16 00:22:13;;;;;;;9.60;8.73;;;11.50;55.80;;;;;;5053525;28;20473;-68
2020/12/16 00:24:39;;;;;;;10.83;9.93;;;11.50;56.00;;;;;;5053836;28;20175;-68
2020/12/16 00:27:09;;;;;;;10.37;9.37;;;11.50;55.80;;;;;;5053523;28;20179;-67
2020/12/16 00:29:34;;;;;;;9.40;8.50;;;11.50;55.70;;;;;;5053674;28;20813;-68
2020/12/16 00:32:00;;;;;;;10.37;9.40;;;11.50;55.60;;;;;;5053531;28;20410;-68
2020/12/16 00:34:25;;;;;;;8.80;8.00;;;11.50;55.70;;;;;;5053612;28;20237;-68
2020/12/16 00:36:51;;;;;;;9.37;8.57;;;11.50;55.70;;;;;;5053459;28;20721;-67
2020/12/16 00:39:16;;;;;;;8.20;7.50;;;11.50;55.40;;;;;;5053275;28;20286;-68
2020/12/16 00:41:42;;;;;;;8.90;8.20;;;11.60;55.00;;;;;;5053452;28;20195;-68
2020/12/16 00:44:07;;;;;;;10.20;8.90;;;11.60;54.90;;;;;;5053314;28;20582;-68
2020/12/16 00:46:33;;;;;;;8.20;7.60;;;11.50;54.90;;;;;;5053357;28;20172;-67
2020/12/16 00:48:59;;;;;;;8.27;7.67;;;11.50;54.50;;;;;;5053042;28;20766;-67
2020/12/16 00:51:24;;;;;;;8.47;7.73;;;11.30;54.40;;;;;;5053206;28;20409;-68
2020/12/16 00:53:50;;;;;;;8.23;7.63;;;11.10;56.00;;;;;;5053185;28;20196;-68
2020/12/16 00:56:15;;;;;;;8.97;8.27;;;11.00;56.00;;;;;;5053147;28;20176;-67
2020/12/16 00:58:41;;;;;;;8.63;7.93;;;11.10;56.60;;;;;;5052631;28;20200;-67
2020/12/16 01:01:07;;;;;;;7.93;7.23;;;11.20;56.30;;;;;;5053019;28;20172;-68
2020/12/16 01:03:33;;;;;;;9.50;8.70;;;11.20;55.70;;;;;;5052932;28;20363;-68
2020/12/16 01:05:59;;;;;;;10.17;9.20;;;11.20;55.80;;;;;;5052961;28;20532;-68
2020/12/16 01:08:24;;;;;;;8.90;8.20;;;11.10;55.80;;;;;;5052824;28;20523;-67
2020/12/16 01:10:50;;;;;;;9.43;8.63;;;11.10;55.40;;;;;;5052993;28;20418;-67
2020/12/16 01:13:16;;;;;;;9.43;8.73;;;11.00;56.00;;;;;;5052889;28;20188;-68
2020/12/16 01:15:41;;;;;;;8.70;7.70;;;11.00;56.10;;;;;;5052878;28;20813;-68
2020/12/16 01:18:07;;;;;;;8.67;8.07;;;10.90;56.20;;;;;;5052477;28;20670;-67
2020/12/16 01:20:32;;;;;;;10.83;9.90;;;10.90;56.70;;;;;;5052733;28;20167;-68
2020/12/16 01:22:58;;;;;;;10.80;9.80;;;10.90;57.00;;;;;;5052568;28;20208;-67
2020/12/16 01:25:24;;;;;;;10.93;9.93;;;11.00;56.50;;;;;;5052716;28;20248;-68
2020/12/16 01:27:54;;;;;;;9.20;8.40;;;11.20;55.50;;;;;;5052498;28;20642;-68
2020/12/16 01:30:20;;;;;;;9.80;9.10;;;11.00;55.80;;;;;;5052411;28;20705;-68
2020/12/16 01:32:46;;;;;;;11.43;10.53;;;11.20;56.80;;;;;;5052332;28;20439;-67
2020/12/16 01:35:11;;;;;;;9.80;9.00;;;11.20;56.10;;;;;;5052368;28;20464;-68
2020/12/16 01:37:37;;;;;;;9.20;8.30;;;11.30;56.30;;;;;;5052130;28;20291;-68
2020/12/16 01:40:05;;;;;;;9.40;8.60;;;11.30;55.30;;;;;;5052338;28;20204;-68
2020/12/16 01:42:30;;;;;;;9.70;8.90;;;11.40;56.00;;;;;;5052224;28;20426;-68
2020/12/16 01:44:56;;;;;;;11.20;10.40;;;11.40;55.60;;;;;;5052200;28;20419;-67
2020/12/16 01:47:22;;;;;;;9.40;8.60;;;11.40;55.90;;;;;;5052074;28;20817;-68
2020/12/16 01:49:47;;;;;;;9.90;9.00;;;11.40;56.00;;;;;;5052116;28;20595;-68
2020/12/16 01:52:19;;;;;;;10.20;9.40;;;11.30;54.70;;;;;;5052049;28;20783;-68
2020/12/16 01:54:45;;;;;;;9.43;8.73;;;11.40;55.60;;;;;;5052144;28;20178;-68
2020/12/16 01:57:12;;;;;;;9.83;9.03;;;11.40;55.60;;;;;;5051857;28;20435;-68
2020/12/16 01:59:39;;;;;;;10.07;9.27;;;11.40;55.60;;;;;;5051918;28;20410;-68
2020/12/16 02:02:07;;;;;;;9.60;8.80;;;11.40;55.70;;;;;;5052207;28;20417;-68
2020/12/16 02:04:37;;;;;;;9.17;8.40;;;11.40;55.70;;;;;;5051961;28;20410;-67
2020/12/16 02:07:06;;;;;;;9.90;9.13;;;11.40;54.90;;;;;;5051788;28;20443;-68
2020/12/16 02:09:38;;;;;;;10.00;8.60;;;11.50;54.20;;;;;;5051810;28;20464;-68
2020/12/16 02:12:11;;;;;;;9.40;8.50;;;11.50;54.80;;;;;;5052384;28;20928;-68
2020/12/16 02:14:37;;;;;;;9.53;8.83;;;11.50;54.50;;;;;;5052330;28;20531;-68
2020/12/16 02:17:03;;;;;;;9.90;9.20;;;11.50;55.10;;;;;;5052179;28;20414;-68
2020/12/16 02:19:40;;;;;;;9.00;8.30;;;11.50;55.50;;;;;;5052202;28;20411;-68
2020/12/16 02:22:07;;;;;;;9.83;9.13;;;11.40;54.90;;;;;;5052197;28;20254;-68
2020/12/16 02:24:33;;;;;;;9.47;8.67;;;11.50;54.90;;;;;;5051935;28;20407;-68
2020/12/16 02:26:58;;;;;;;9.83;8.80;;;11.50;55.10;;;;;;5051860;28;20909;-68
2020/12/16 02:29:25;;;;;;;10.13;9.33;;;11.50;55.10;;;;;;5051710;28;20415;-67
2020/12/16 02:31:52;;;;;;;10.10;9.13;;;11.50;54.90;;;;;;5051341;28;20168;-67
2020/12/16 02:34:18;;;;;;;9.60;8.60;;;11.50;54.50;;;;;;5051368;28;20414;-68
2020/12/16 02:36:43;;;;;;;9.43;8.63;;;11.50;54.40;;;;;;5051277;28;20411;-67
2020/12/16 02:39:09;;;;;;;10.30;9.53;;;11.50;54.80;;;;;;5050979;28;20203;-67
2020/12/16 02:41:34;;;;;;;9.30;8.70;;;11.50;55.10;;;;;;5051238;28;20195;-67
2020/12/16 02:44:00;;;;;;;10.07;9.20;;;11.50;55.10;;;;;;5051264;28;20194;-68
2020/12/16 02:46:25;;;;;;;9.10;8.40;;;11.50;54.80;;;;;;5051128;28;20175;-68
2020/12/16 02:48:51;;;;;;;9.67;8.90;;;11.50;53.10;;;;;;5050843;28;20217;-67
2020/12/16 02:51:16;;;;;;;9.47;8.77;;;11.40;53.90;;;;;;5051107;28;20266;-68
2020/12/16 02:53:42;;;;;;;9.40;8.67;;;11.50;54.90;;;;;;5050996;28;20200;-68
2020/12/16 02:56:07;;;;;;;9.73;8.90;;;11.40;55.10;;;;;;5051022;28;20187;-68
2020/12/16 02:58:33;;;;;;;9.93;9.13;;;11.50;55.00;;;;;;5050750;28;20711;-68
2020/12/16 03:00:59;;;;;;;9.93;9.20;;;11.50;55.10;;;;;;5050856;28;20179;-68
2020/12/16 03:03:24;;;;;;;9.40;8.70;;;11.40;54.70;;;;;;5050790;28;20211;-67
2020/12/16 03:05:50;;;;;;;9.97;9.20;;;11.40;53.80;;;;;;5050950;28;20175;-68
2020/12/16 03:08:15;;;;;;;10.27;9.20;;;11.40;53.40;;;;;;5050725;28;20602;-68
2020/12/16 03:10:41;;;;;;;8.80;8.30;;;11.40;53.60;;;;;;5050843;28;20172;-68
2020/12/16 03:13:06;;;;;;;8.90;8.20;;;11.40;54.80;;;;;;5050764;28;20199;-68
2020/12/16 03:15:32;;;;;;;10.27;9.40;;;11.40;54.00;;;;;;5050864;28;20183;-68
2020/12/16 03:17:58;;;;;;;9.33;8.63;;;11.40;54.60;;;;;;5050559;28;20253;-68
2020/12/16 03:20:24;;;;;;;10.03;9.33;;;11.40;54.60;;;;;;5051791;28;20947;-68
2020/12/16 03:22:49;;;;;;;10.90;10.00;;;11.40;54.40;;;;;;5054778;28;20211;-68
2020/12/16 03:25:15;;;;;;;10.33;9.47;;;11.40;54.30;;;;;;5054916;28;20200;-67
2020/12/16 03:27:41;;;;;;;9.40;8.73;;;11.50;54.70;;;;;;5054857;28;20184;-68
2020/12/16 03:30:06;;;;;;;9.43;8.67;;;11.40;54.00;;;;;;5055130;28;20176;-68
2020/12/16 03:32:32;;;;;;;10.40;9.47;;;11.30;53.70;;;;;;5054780;28;20682;-67
2020/12/16 03:34:58;;;;;;;10.13;9.33;;;11.30;53.80;;;;;;5054774;28;20540;-68
2020/12/16 03:37:24;;;;;;;9.07;8.37;;;11.50;53.50;;;;;;5054328;28;20553;-68
2020/12/16 03:39:49;;;;;;;9.87;9.10;;;11.40;53.10;;;;;;5054589;28;20639;-67
2020/12/16 03:42:15;;;;;;;10.20;9.40;;;11.30;54.40;;;;;;5054515;28;20202;-68
2020/12/16 03:44:40;;;;;;;9.77;9.07;;;11.30;52.60;;;;;;5054494;28;20207;-68
2020/12/16 03:47:06;;;;;;;9.97;9.03;;;11.40;54.20;;;;;;5054621;28;20302;-67
2020/12/16 03:49:31;;;;;;;10.67;9.67;;;11.40;54.60;;;;;;5054361;28;20176;-68
2020/12/16 03:51:57;;;;;;;9.20;8.50;;;11.20;53.80;;;;;;5053088;28;20610;-68
2020/12/16 03:54:23;;;;;;;9.67;8.97;;;11.30;54.10;;;;;;5054344;28;20176;-67
2020/12/16 03:56:49;;;;;;;10.83;9.80;;;11.20;53.50;;;;;;5054262;28;20176;-67
2020/12/16 03:59:15;;;;;;;9.70;8.90;;;11.10;53.80;;;;;;5053969;28;20461;-68
2020/12/16 04:01:41;;;;;;;9.03;8.43;;;11.20;54.60;;;;;;5054448;28;20259;-68
2020/12/16 04:04:07;;;;;;;8.97;8.37;;;11.20;54.60;;;;;;5054076;28;20430;-68
2020/12/16 04:06:33;;;;;;;9.87;9.07;;;11.30;54.30;;;;;;5054015;28;20782;-67
2020/12/16 04:08:59;;;;;;;10.20;9.40;;;11.40;54.40;;;;;;5053912;28;20409;-68
2020/12/16 04:11:25;;;;;;;9.23;8.53;;;11.40;54.00;;;;;;5054042;28;20418;-68
2020/12/16 04:13:50;;;;;;;10.03;9.23;;;11.40;53.20;;;;;;5053834;28;20219;-67
2020/12/16 04:16:20;;;;;;;10.00;9.00;;;11.40;52.90;;;;;;5053947;28;20180;-67
2020/12/16 04:18:47;;;;;;;9.10;8.40;;;11.40;51.60;;;;;;5053740;28;20200;-68
2020/12/16 04:21:13;;;;;;;9.87;9.07;;;11.30;52.00;;;;;;5053843;28;20437;-67
2020/12/16 04:23:38;;;;;;;9.70;8.70;;;11.20;51.80;;;;;;5053506;28;20450;-67
2020/12/16 04:26:04;;;;;;;9.53;8.83;;;11.20;52.50;;;;;;5053865;28;20776;-68
2020/12/16 04:28:30;;;;;;;9.70;8.97;;;11.30;52.50;;;;;;5053678;28;20176;-68
2020/12/16 04:30:56;;;;;;;10.03;9.23;;;11.20;52.30;;;;;;5053775;28;20502;-67
2020/12/16 04:33:22;;;;;;;9.03;8.33;;;11.20;52.50;;;;;;5053026;28;20250;-68
2020/12/16 04:35:47;;;;;;;9.47;8.77;;;11.20;52.50;;;;;;5053637;28;20410;-67
2020/12/16 04:38:13;;;;;;;9.07;8.30;;;11.30;53.20;;;;;;5053331;28;20218;-68
2020/12/16 04:40:39;;;;;;;10.23;9.37;;;11.40;52.60;;;;;;5053580;28;20175;-68
2020/12/16 04:43:16;;;;;;;10.23;9.23;;;11.30;52.50;;;;;;5053490;28;20889;-67
2020/12/16 04:45:41;;;;;;;9.90;9.13;;;11.40;52.60;;;;;;5053545;28;20759;-67
2020/12/16 04:48:12;;;;;;;9.07;8.30;;;11.40;52.60;;;;;;5053174;28;20407;-67
2020/12/16 04:50:39;;;;;;;9.80;8.83;;;11.40;52.60;;;;;;5053253;28;20172;-67
2020/12/16 04:53:08;;;;;;;10.30;9.40;;;11.40;52.60;;;;;;5053265;28;20448;-67
2020/12/16 04:55:34;;;;;;;10.20;9.30;;;11.50;52.40;;;;;;5053106;28;20418;-67
2020/12/16 04:58:00;;;;;;;9.53;8.27;;;11.40;52.60;;;;;;5052935;28;20508;-67
2020/12/16 05:00:27;;;;;;;10.20;9.30;;;11.20;51.10;;;;;;5053097;28;20446;-67
2020/12/16 05:02:59;;;;;;;10.40;9.60;;;10.80;52.10;;;;;;5052850;28;20431;-68
2020/12/16 05:05:25;;;;;;;9.63;8.73;;;10.70;52.00;;;;;;5052874;28;20549;-68
2020/12/16 05:07:51;;;;;;;9.43;8.73;;;10.70;52.70;;;;;;5052712;28;20406;-68
2020/12/16 05:10:33;;;;;;;10.93;10.00;;;10.90;53.00;;;;;;5052878;28;20442;-67
2020/12/16 05:13:02;;;;;;;11.10;10.20;;;10.90;51.60;;;;;;5052691;28;20434;-67
2020/12/16 05:15:28;;;;;;;11.03;10.13;;;10.70;52.00;;;;;;5052822;28;20415;-67
2020/12/16 05:18:06;;;;;;;10.70;9.77;;;10.80;52.10;;;;;;5052524;28;20458;-67
2020/12/16 05:20:32;;;;;;;10.30;9.50;;;10.80;52.10;;;;;;5052698;28;20222;-67
2020/12/16 05:23:03;;;;;;;11.07;10.27;;;10.90;52.40;;;;;;5052476;28;20455;-68
2020/12/16 05:25:28;;;;;;;10.00;9.10;;;10.90;52.00;;;;;;5052483;28;20168;-69
2020/12/16 05:27:54;;;;;;;11.70;10.50;;;10.90;51.90;;;;;;5050993;28;20480;-67
2020/12/16 05:30:20;;;;;;;9.80;9.00;;;10.90;52.20;;;;;;5052612;28;20674;-67
2020/12/16 05:32:46;;;;;;;12.83;11.67;;;10.70;51.70;;;;;;5052452;28;20277;-67
2020/12/16 05:35:22;;;;;;;11.67;10.77;;;10.60;51.90;;;;;;5052503;28;20180;-68
2020/12/16 05:37:48;;;;;;;9.17;8.47;;;10.90;52.70;;;;;;5048474;28;20490;-68
2020/12/16 05:40:22;;;;;;;11.00;10.03;;;10.90;52.20;;;;;;5051714;28;20453;-67
2020/12/16 05:42:49;;;;;;;10.17;9.23;;;11.10;51.70;;;;;;5052040;28;20287;-67
2020/12/16 05:45:20;;;;;;;10.70;9.80;;;11.00;51.00;;;;;;5050927;28;20414;-68
2020/12/16 05:48:01;;;;;;;11.17;10.17;;;11.00;51.40;;;;;;5051507;28;20407;-67
2020/12/16 05:50:36;;;;;;;11.17;10.27;;;11.00;51.30;;;;;;5051862;28;20414;-64
2020/12/16 05:53:09;;;;;;;11.53;10.63;;;10.90;51.20;;;;;;5051394;28;20517;-68
2020/12/16 05:55:35;;;;;;;10.90;9.90;;;10.80;51.50;;;;;;5051559;28;20464;-67
2020/12/16 05:58:14;;;;;;;11.33;10.33;;;10.70;52.10;;;;;;5051368;28;20458;-67
2020/12/16 06:00:56;;;;;;;10.27;9.47;;;10.80;51.80;;;;;;5050495;28;20182;-67
2020/12/16 06:03:27;;;;;;;11.00;9.90;;;10.90;51.50;;;;;;5051002;28;20426;-67
2020/12/16 06:06:04;;;;;;;10.87;9.97;;;11.00;49.80;;;;;;5051214;28;20403;-67
2020/12/16 06:08:39;;;;;;;10.43;9.60;;;10.70;50.00;;;;;;5051328;28;20456;-66
2020/12/16 06:11:07;;;;;;;9.70;8.90;;;10.50;50.80;;;;;;5051312;28;20499;-67
2020/12/16 06:13:33;;;;;;;11.27;10.40;;;10.40;51.70;;;;;;5051225;28;20799;-67
2020/12/16 06:16:04;;;;;;;14.53;13.33;;;10.50;51.90;;;;;;5051424;28;21001;-66
2020/12/16 06:18:33;;;;;;;16.57;14.97;;;10.60;52.00;;;;;;5050902;28;20461;-66
2020/12/16 06:21:00;;;;;;;9.70;8.90;;;10.60;50.90;;;;;;5051293;28;20399;-66
2020/12/16 06:23:30;;;;;;;9.40;8.67;;;10.70;51.00;;;;;;5050980;28;20453;-66
2020/12/16 06:25:57;;;;;;;10.23;9.43;;;10.80;49.10;;;;;;5050971;28;20402;-67
2020/12/16 06:28:24;;;;;;;9.03;8.33;;;10.60;50.00;;;;;;5050747;28;20442;-66
2020/12/16 06:31:05;;;;;;;9.00;8.40;;;10.70;50.50;;;;;;5051015;28;20415;-67
2020/12/16 06:33:38;;;;;;;10.73;9.73;;;10.60;50.00;;;;;;5050779;28;20794;-66
2020/12/16 06:36:06;;;;;;;9.10;8.30;;;10.60;50.50;;;;;;5051086;28;20460;-68
2020/12/16 06:38:43;;;;;;;9.20;8.30;;;10.60;49.70;;;;;;5050650;28;20454;-67
2020/12/16 06:41:20;;;;;;;9.50;8.60;;;10.60;49.60;;;;;;5050708;28;20793;-66
2020/12/16 06:43:47;;;;;;;9.23;8.53;;;10.30;50.10;;;;;;5050750;28;20448;-67
2020/12/16 06:46:30;;;;;;;10.33;9.33;;;10.40;49.50;;;;;;5050906;28;20485;-67
2020/12/16 06:48:58;;;;;;;9.53;8.77;;;10.50;49.60;;;;;;5049474;28;20418;-67
2020/12/16 06:51:25;;;;;;;9.03;8.33;;;10.40;49.20;;;;;;5050656;28;20472;-67
2020/12/16 06:54:07;;;;;;;9.23;8.43;;;10.30;50.40;;;;;;5050616;28;20936;-66
2020/12/16 06:56:33;;;;;;;9.33;8.63;;;10.40;50.00;;;;;;5050623;28;20409;-67
2020/12/16 06:58:58;;;;;;;9.40;8.60;;;10.60;54.00;;;;;;5050741;28;20461;-66
2020/12/16 07:01:24;;;;;;;10.30;8.30;;;11.10;50.80;;;;;;5050698;28;20247;-66
2020/12/16 07:03:50;;;;;;;8.57;7.77;;;11.20;50.70;;;;;;5050705;28;20830;-66
2020/12/16 07:06:28;;;;;;;7.83;7.23;;;11.20;50.80;;;;;;5050772;28;20406;-66
2020/12/16 07:09:22;;;;;;;8.50;7.90;;;11.80;54.70;;;;;;5051021;28;20175;-68
2020/12/16 07:11:48;;;;;;;9.53;8.73;;;11.80;48.10;;;;;;5050616;28;20970;-67
2020/12/16 07:14:25;;;;;;;9.50;8.80;;;11.50;46.50;;;;;;5050509;28;20747;-66
2020/12/16 07:16:51;;;;;;;8.70;8.10;;;11.40;49.60;;;;;;5050371;28;20460;-67
2020/12/16 07:19:27;;;;;;;10.13;9.17;;;12.50;48.80;;;;;;5050331;28;20454;-66
2020/12/16 07:21:52;;;;;;;10.57;9.73;;;11.80;44.80;;;;;;5050211;28;20438;-65
2020/12/16 07:24:18;;;;;;;9.67;8.87;;;11.60;45.00;;;;;;5050095;28;20469;-66
2020/12/16 07:26:46;;;;;;;10.67;9.60;;;11.40;45.70;;;;;;5050077;28;20276;-66
2020/12/16 07:29:31;;;;;;;10.77;9.87;;;11.10;47.80;;;;;;5050332;28;20493;-66
2020/12/16 07:31:58;;;;;;;12.40;9.90;;;11.00;48.00;;;;;;5049969;28;20418;-64
2020/12/16 07:34:24;;;;;;;11.40;9.80;;;11.10;48.20;;;;;;5050376;28;20406;-66
2020/12/16 07:37:01;;;;;;;8.87;8.17;;;11.10;48.20;;;;;;5035488;28;20427;-69
2020/12/16 07:39:29;;;;;;;9.47;8.67;;;10.60;47.10;;;;;;5049291;28;20576;-67
2020/12/16 07:41:56;;;;;;;9.87;9.07;;;10.50;48.80;;;;;;5050140;28;20416;-68
2020/12/16 07:44:22;;;;;;;10.40;9.60;;;10.40;49.80;;;;;;5050367;28;20422;-67
2020/12/16 07:46:48;;;;;;;10.17;9.33;;;10.40;49.90;;;;;;5050458;28;20414;-68
2020/12/16 07:49:16;;;;;;;10.23;9.37;;;10.50;50.00;;;;;;5050201;28;20520;-69
2020/12/16 07:51:42;;;;;;;9.13;8.43;;;10.40;49.20;;;;;;5050128;28;20174;-68
2020/12/16 07:54:08;;;;;;;9.70;8.83;;;10.30;49.40;;;;;;5049329;28;20464;-67
2020/12/16 07:56:33;;;;;;;8.30;7.70;;;9.90;50.50;;;;;;5047325;28;20445;-66
2020/12/16 07:59:13;;;;;;;8.73;7.97;;;10.00;50.80;;;;;;5048766;28;20836;-67
2020/12/16 08:01:39;;;;;;;9.10;8.33;;;10.10;49.70;;;;;;5050337;28;20167;-70
2020/12/16 08:04:05;;;;;;;8.17;7.50;;;10.30;49.10;;;;;;5050112;28;20960;-70
2020/12/16 08:06:31;;;;;;;8.33;7.60;;;10.40;48.70;;;;;;5050224;28;20406;-70
2020/12/16 08:08:56;;;;;;;8.37;7.33;;;10.40;47.90;;;;;;5053278;28;20446;-69
2020/12/16 08:11:27;;;;;;;9.07;7.80;;;9.90;50.20;;;;;;5053815;28;20449;-69
2020/12/16 08:14:07;;;;;;;9.27;8.27;;;9.80;51.40;;;;;;5053511;28;20546;-66
2020/12/16 08:16:34;;;;;;;8.10;7.50;;;10.00;50.20;;;;;;5053768;28;20441;-67
2020/12/16 08:19:01;;;;;;;8.70;8.10;;;10.20;49.60;;;;;;5053610;28;20485;-66
2020/12/16 08:21:26;;;;;;;9.23;8.40;;;10.30;49.00;;;;;;5053817;28;20407;-65
2020/12/16 08:23:54;;;;;;;8.63;7.83;;;10.40;48.90;;;;;;5053776;28;20819;-67
2020/12/16 08:26:21;;;;;;;9.23;8.43;;;10.30;49.10;;;;;;5053753;28;20207;-66
2020/12/16 08:28:47;;;;;;;7.70;7.00;;;10.60;49.50;;;;;;5053479;28;20432;-66
2020/12/16 08:31:18;;;;;;;8.23;7.50;;;10.50;47.90;;;;;;5053518;28;20418;-65
2020/12/16 08:33:45;;;;;;;7.87;7.10;;;10.30;48.30;;;;;;5053482;28;20422;-66
2020/12/16 08:36:16;;;;;;;8.30;7.70;;;10.30;48.60;;;;;;5053533;28;20536;-67
2020/12/16 08:38:43;;;;;;;8.20;7.40;;;10.20;48.60;;;;;;5053166;28;20449;-66
2020/12/16 08:41:11;;;;;;;7.30;6.70;;;10.20;49.30;;;;;;5053282;28;20394;-66
2020/12/16 08:43:38;;;;;;;8.67;7.93;;;10.20;48.40;;;;;;5053335;28;20423;-66
2020/12/16 08:46:16;;;;;;;7.57;6.97;;;10.20;49.10;;;;;;5053438;28;20420;-66
2020/12/16 08:48:41;;;;;;;8.60;7.70;;;10.30;48.30;;;;;;5053022;28;20406;-67
2020/12/16 08:51:09;;;;;;;8.47;7.77;;;10.60;49.20;;;;;;5053177;28;20424;-66
2020/12/16 08:53:56;;;;;;;7.43;6.67;;;10.50;47.70;;;;;;5053013;28;20206;-67
2020/12/16 08:56:37;;;;;;;7.17;6.40;;;10.50;48.10;;;;;;5053013;28;20414;-69
2020/12/16 08:59:13;;;;;;;6.93;6.30;;;10.50;47.50;;;;;;5052873;28;20980;-66
2020/12/16 09:01:46;;;;;;;7.03;6.53;;;10.20;48.80;;;;;;5053104;28;20406;-68
2020/12/16 09:04:22;;;;;;;6.70;6.10;;;10.00;49.60;;;;;;5052908;28;20467;-69
2020/12/16 09:07:22;;;;;;;7.17;6.47;;;10.20;49.50;;;;;;5052884;28;20406;-65
2020/12/16 09:09:47;;;;;;;8.10;7.40;;;10.00;49.90;;;;;;5032852;28;20426;-67
2020/12/16 09:12:15;;;;;;;7.00;6.47;;;10.10;50.10;;;;;;5051123;28;20426;-67
2020/12/16 09:14:55;;;;;;;7.30;6.60;;;10.20;49.30;;;;;;5052696;28;20263;-66
2020/12/16 09:17:29;;;;;;;6.77;6.20;;;10.40;50.00;;;;;;5036659;28;20426;-68
2020/12/16 09:19:55;;;;;;;6.17;5.70;;;10.30;48.90;;;;;;5032661;28;20408;-68
2020/12/16 09:22:25;;;;;;;6.13;5.63;;;10.20;49.10;;;;;;5032730;28;20439;-68
2020/12/16 09:24:52;;;;;;;11.40;10.20;;;10.40;49.90;;;;;;5032706;28;20407;-69
2020/12/16 09:27:17;;;;;;;9.80;8.90;;;10.40;48.70;;;;;;5035970;28;20779;-66
2020/12/16 09:29:45;;;;;;;6.27;5.30;;;10.40;48.40;;;;;;5052302;28;20411;-69
2020/12/16 09:32:15;;;;;;;6.60;6.00;;;10.40;48.30;;;;;;5052347;28;20195;-67
2020/12/16 09:34:46;;;;;;;6.47;5.97;;;10.30;48.80;;;;;;5052423;28;20406;-68
2020/12/16 09:37:13;;;;;;;7.40;6.80;;;10.20;49.90;;;;;;5052020;28;20425;-68
2020/12/16 09:39:39;;;;;;;7.00;6.30;;;10.00;51.10;;;;;;5052293;28;20450;-69
2020/12/16 09:42:10;;;;;;;6.57;6.10;;;10.20;50.50;;;;;;5052376;28;20487;-67
2020/12/16 09:44:35;;;;;;;6.97;6.40;;;10.30;49.90;;;;;;5052229;28;20805;-67
2020/12/16 09:47:21;;;;;;;8.37;7.67;;;10.50;49.50;;;;;;5052074;28;20422;-67
2020/12/16 09:50:00;;;;;;;5.70;5.30;;;10.60;50.10;;;;;;5052271;28;20176;-68
2020/12/16 09:52:37;;;;;;;6.37;5.97;;;10.80;48.50;;;;;;5052145;28;20542;-66
2020/12/16 09:55:14;;;;;;;6.63;6.13;;;10.50;49.10;;;;;;5052054;28;20505;-67
2020/12/16 09:57:41;;;;;;;9.57;6.50;;;10.50;49.40;;;;;;5051604;28;20454;-67
2020/12/16 10:00:07;;;;;;;7.40;6.80;;;10.60;50.10;;;;;;5051950;28;20826;-67
2020/12/16 10:02:33;;;;;;;6.47;5.97;;;10.70;49.00;;;;;;5051813;28;20430;-66
2020/12/16 10:04:58;;;;;;;6.60;6.10;;;10.80;49.30;;;;;;5051603;28;20394;-68
2020/12/16 10:07:23;;;;;;;6.80;6.20;;;10.80;49.50;;;;;;5051506;28;20249;-66
2020/12/16 10:09:52;;;;;;;8.00;7.23;;;10.80;49.40;;;;;;5051718;28;20178;-68
2020/12/16 10:12:19;;;;;;;7.67;6.97;;;11.00;48.70;;;;;;5051661;28;20191;-66
2020/12/16 10:14:45;;;;;;;11.10;6.67;;;11.20;48.50;;;;;;5051812;28;20445;-66
2020/12/16 10:17:10;;;;;;;8.07;7.37;;;11.20;48.10;;;;;;5051509;28;20442;-68
2020/12/16 10:19:36;;;;;;;8.77;7.47;;;11.30;47.90;;;;;;5051270;28;20294;-67
2020/12/16 10:22:01;;;;;;;6.90;6.40;;;11.50;48.00;;;;;;5051450;28;20172;-67
2020/12/16 10:24:27;;;;;;;7.30;6.70;;;11.50;47.70;;;;;;5051245;28;20342;-67
2020/12/16 10:26:52;;;;;;;7.53;6.93;;;11.60;47.20;;;;;;5051352;28;20259;-66
2020/12/16 10:29:18;;;;;;;8.77;7.87;;;11.60;47.10;;;;;;5051390;28;20646;-67
2020/12/16 10:31:50;;;;;;;8.17;7.47;;;11.50;47.30;;;;;;5051002;28;20558;-65
2020/12/16 10:34:17;;;;;;;8.80;7.90;;;11.50;47.20;;;;;;5051224;28;20178;-67
2020/12/16 10:36:43;;;;;;;8.53;7.73;;;11.60;47.30;;;;;;5051115;28;20415;-67
2020/12/16 10:39:08;;;;;;;8.77;7.87;;;11.70;47.30;;;;;;5050910;28;20456;-67
2020/12/16 10:41:35;;;;;;;8.23;7.53;;;11.70;47.10;;;;;;5051171;28;20410;-68
2020/12/16 10:44:00;;;;;;;8.70;7.90;;;11.80;47.20;;;;;;5051064;28;20215;-67
2020/12/16 10:46:26;;;;;;;8.23;7.43;;;11.90;46.50;;;;;;5051047;28;20435;-66
2020/12/16 10:48:51;;;;;;;9.10;8.37;;;12.00;46.00;;;;;;5050849;28;20187;-67
2020/12/16 10:51:17;;;;;;;7.93;7.17;;;12.10;46.00;;;;;;5050951;28;20176;-66
2020/12/16 10:53:42;;;;;;;9.30;8.40;;;12.20;46.70;;;;;;5050907;28;20240;-66
2020/12/16 10:56:08;;;;;;;8.73;7.93;;;12.20;46.50;;;;;;5050803;28;20183;-66
2020/12/16 10:58:34;;;;;;;9.10;8.40;;;12.20;46.40;;;;;;5050572;28;20215;-68
2020/12/16 11:00:59;;;;;;;9.00;8.17;;;12.30;45.60;;;;;;5050829;28;20533;-66
2020/12/16 11:03:25;;;;;;;10.03;9.03;;;12.40;45.60;;;;;;5050704;28;20207;-67
2020/12/16 11:05:50;;;;;;;8.30;7.57;;;12.40;45.40;;;;;;5050834;28;20591;-67
2020/12/16 11:08:16;;;;;;;9.03;8.33;;;12.40;45.70;;;;;;5050416;28;20728;-69
2020/12/16 11:10:49;;;;;;;9.23;8.53;;;12.40;45.80;;;;;;5050486;28;20670;-66
2020/12/16 11:13:15;;;;;;;8.57;7.87;;;12.50;45.90;;;;;;5050719;28;20191;-67
2020/12/16 11:15:40;;;;;;;11.57;9.33;;;12.60;45.40;;;;;;5050690;28;20773;-67
2020/12/16 11:18:06;;;;;;;9.70;8.13;;;12.50;45.50;;;;;;5049703;28;20469;-64
2020/12/16 11:20:31;;;;;;;8.63;7.83;;;12.50;45.50;;;;;;5050571;28;20183;-67
2020/12/16 11:22:57;;;;;;;11.13;8.47;;;12.60;46.80;;;;;;5050489;28;20211;-66
2020/12/16 11:25:22;;;;;;;8.77;8.07;;;12.60;45.90;;;;;;5050615;28;20194;-67
2020/12/16 11:27:48;;;;;;;9.63;8.83;;;12.70;45.60;;;;;;5050485;28;20214;-68
2020/12/16 11:30:13;;;;;;;9.60;8.60;;;12.80;45.80;;;;;;5050573;28;20186;-68
2020/12/16 11:32:39;;;;;;;9.30;8.17;;;12.80;45.90;;;;;;5050371;28;20199;-69
2020/12/16 11:35:04;;;;;;;14.30;10.40;;;12.80;45.50;;;;;;5050541;28;20212;-67
2020/12/16 11:37:30;;;;;;;10.67;9.70;;;12.80;45.40;;;;;;5050310;28;20176;-69
2020/12/16 11:39:58;;;;;;;9.03;8.23;;;12.80;46.10;;;;;;5050349;28;20168;-68
2020/12/16 11:42:24;;;;;;;10.40;9.50;;;12.80;46.00;;;;;;5051227;28;20214;-68
2020/12/16 11:44:51;;;;;;;11.53;10.50;;;12.90;44.80;;;;;;5054445;28;20410;-68
2020/12/16 11:47:17;;;;;;;10.87;10.07;;;13.00;44.50;;;;;;5054161;28;20172;-68
2020/12/16 11:49:43;;;;;;;10.50;9.60;;;13.00;44.30;;;;;;5054476;28;20410;-67
2020/12/16 11:52:08;;;;;;;10.13;9.20;;;13.00;44.20;;;;;;5054699;28;20720;-68
2020/12/16 11:54:34;;;;;;;11.70;10.53;;;13.00;44.20;;;;;;5054419;28;20188;-68
2020/12/16 11:57:00;;;;;;;10.87;9.97;;;12.90;44.20;;;;;;5054265;28;20551;-68
2020/12/16 11:59:26;;;;;;;11.20;10.17;;;13.00;44.20;;;;;;5054150;28;20553;-67
2020/12/16 12:01:56;;;;;;;10.93;9.77;;;13.10;43.90;;;;;;5054101;28;20176;-68
2020/12/16 12:04:22;;;;;;;11.23;10.23;;;13.00;44.20;;;;;;5054336;28;20742;-69
2020/12/16 12:06:48;;;;;;;11.17;10.20;;;13.10;44.30;;;;;;5054217;28;20414;-67
2020/12/16 12:09:13;;;;;;;11.03;9.67;;;13.10;44.10;;;;;;5053920;28;20670;-69
2020/12/16 12:11:39;;;;;;;11.80;10.60;;;13.20;43.60;;;;;;5053872;28;20204;-69
2020/12/16 12:14:04;;;;;;;12.63;11.50;;;13.10;43.70;;;;;;5053850;28;20196;-65
2020/12/16 12:16:30;;;;;;;13.50;10.83;;;13.20;43.90;;;;;;5053751;28;20275;-66
2020/12/16 12:18:55;;;;;;;12.43;11.33;;;13.20;43.90;;;;;;5053632;28;20203;-69
2020/12/16 12:21:21;;;;;;;12.53;11.33;;;13.30;44.10;;;;;;5053773;28;20666;-68
2020/12/16 12:23:46;;;;;;;11.30;10.30;;;13.40;43.70;;;;;;5053532;28;20210;-67
2020/12/16 12:26:12;;;;;;;11.20;10.10;;;13.30;43.10;;;;;;5053389;28;20172;-68
2020/12/16 12:28:38;;;;;;;10.73;9.83;;;13.30;43.40;;;;;;5053369;28;20176;-66
2020/12/16 12:31:03;;;;;;;11.53;10.43;;;13.30;44.20;;;;;;5053615;28;20269;-66
2020/12/16 12:33:29;;;;;;;12.17;10.77;;;13.40;44.00;;;;;;5053418;28;20195;-68
2020/12/16 12:35:55;;;;;;;10.23;9.43;;;13.40;44.00;;;;;;5053230;28;20212;-67
2020/12/16 12:38:20;;;;;;;13.00;11.87;;;13.40;44.00;;;;;;5053289;28;20253;-67
2020/12/16 12:40:47;;;;;;;10.47;9.57;;;13.50;44.40;;;;;;5053449;28;20172;-69
2020/12/16 12:43:13;;;;;;;13.60;12.30;;;13.40;44.60;;;;;;5053249;28;20556;-67
2020/12/16 12:45:38;;;;;;;11.97;10.10;;;13.40;44.60;;;;;;5053320;28;20410;-66